Highlands Peak, California Weather observations

Data are for observation ending at time listed.
 Day   Time    Ave.   Ave.  Ave.  Vector   Max.   Stn.    Total    Solar   Ave.  
  of    of     Air    Rel.  Wind   Wind    Wind   Baro.  Precip.   Rad.    Soil  
Year   Day     Temp.  Hum.  Speed  Dir.    Gust   Pres.                    Temp. 
2016   (PST)    F      %     mph   deg.    mph     mb.     in.     W/m2     F   
------------------------------------------------------------------------------
 121   14:50   66.1    37    5.5   262      9.1   924.1    0.00     798    70.2
 121   15:00   65.3    38    4.7   256      7.5   924.0    0.00     771    70.6
 121   15:10   65.2    40    5.4   266      8.8   923.9    0.00     743    70.8
 121   15:20   65.0    39    3.9   266      6.6   923.9    0.00     716    71.1
 121   15:30   65.8    38    3.7   262      6.6   923.8    0.00     685    71.5
 121   15:40   66.2    37    3.2   271      6.8   923.8    0.00     652    71.7
 121   15:50   67.8    30    3.4   211      7.5   923.9    0.00     617    72.0
 121   16:00   66.5    26    3.8   205      7.0   923.9    0.00     583    72.4
 121   16:10   67.1    30    4.5   244      8.3   923.9    0.00     549    72.6
 121   16:20   66.6    34    3.8   269      7.0   923.9    0.00     513    72.8
 121   16:30   66.1    34    2.8   251      5.4   923.9    0.00     476    72.9
 121   16:40   66.2    34    2.2   268      4.7   923.9    0.00     441    73.0
 121   16:50  99999.0   99999  99999.0   99999    99999.0   99999.0   99999.00   99999    99999.0
 121   17:00  99999.0   99999  99999.0   99999    99999.0   99999.0   99999.00   99999    99999.0
 121   17:10  99999.0   99999  99999.0   99999    99999.0   99999.0   99999.00   99999    99999.0
 121   17:20  99999.0   99999  99999.0   99999    99999.0   99999.0   99999.00   99999    99999.0
 121   17:30  99999.0   99999  99999.0   99999    99999.0   99999.0   99999.00   99999    99999.0
 121   17:40  99999.0   99999  99999.0   99999    99999.0   99999.0   99999.00   99999    99999.0
 121   17:50  99999.0   99999  99999.0   99999    99999.0   99999.0   99999.00   99999    99999.0
 121   18:00  99999.0   99999  99999.0   99999    99999.0   99999.0   99999.00   99999    99999.0
 121   18:10  99999.0   99999  99999.0   99999    99999.0   99999.0   99999.00   99999    99999.0
 121   18:20  99999.0   99999  99999.0   99999    99999.0   99999.0   99999.00   99999    99999.0
 121   18:30  99999.0   99999  99999.0   99999    99999.0   99999.0   99999.00   99999    99999.0
 121   18:40  99999.0   99999  99999.0   99999    99999.0   99999.0   99999.00   99999    99999.0
 121   18:50  99999.0   99999  99999.0   99999    99999.0   99999.0   99999.00   99999    99999.0
 121   19:00  99999.0   99999  99999.0   99999    99999.0   99999.0   99999.00   99999    99999.0
 121   19:10  99999.0   99999  99999.0   99999    99999.0   99999.0   99999.00   99999    99999.0
 121   19:20  99999.0   99999  99999.0   99999    99999.0   99999.0   99999.00   99999    99999.0
 121   19:30  99999.0   99999  99999.0   99999    99999.0   99999.0   99999.00   99999    99999.0
 121   19:40  99999.0   99999  99999.0   99999    99999.0   99999.0   99999.00   99999    99999.0
 121   19:50  99999.0   99999  99999.0   99999    99999.0   99999.0   99999.00   99999    99999.0
 121   20:00  99999.0   99999  99999.0   99999    99999.0   99999.0   99999.00   99999    99999.0
 121   20:10  99999.0   99999  99999.0   99999    99999.0   99999.0   99999.00   99999    99999.0
 121   20:20  99999.0   99999  99999.0   99999    99999.0   99999.0   99999.00   99999    99999.0
 121   20:30  99999.0   99999  99999.0   99999    99999.0   99999.0   99999.00   99999    99999.0
 121   20:40  99999.0   99999  99999.0   99999    99999.0   99999.0   99999.00   99999    99999.0
 121   20:50   61.4    35   13.5    42     23.8   925.1    0.00       0    69.5
 121   21:00   61.6    35   10.9    45     19.5   925.2    0.00       0    69.2
 121   21:10   61.8    35   13.2    44     20.0   925.3    0.00       0    68.9
 121   21:20   62.1    34   10.3    42     22.4   925.4    0.00       0    68.7
 121   21:30   61.9    34    9.5    40     21.0   925.4    0.00       0    68.5
 121   21:40  99999.0   99999  99999.0   99999    99999.0   99999.0   99999.00   99999    99999.0
 121   21:50   62.2    34   12.2    39     20.2   925.4    0.00       0    68.1
 121   22:00   62.2    34    9.9    42     18.5   925.4    0.00       0    67.8
 121   22:10   62.7    32   13.1    38     22.1   925.3    0.00       0    67.7
 121   22:20   62.5    32    8.1    45     15.1   925.4    0.00       0    67.5
 121   22:30   62.1    33    4.6    70     12.7   925.4    0.00       0    67.4
 121   22:40   61.4    34    4.6    53     10.7   925.4    0.00       0    67.4
 121   22:50   62.0    33    5.7    50     11.5   925.4    0.00       0    67.3
 121   23:00   61.8    34    3.9     3     13.7   925.4    0.00       0    67.2
 121   23:10   61.7    33    0.9    12      2.1   925.5    0.00       0    67.2
 121   23:20   62.5    32    3.3    27      6.5   925.5    0.00       0    67.1
 121   23:30   62.3    32    3.1    26      6.2   925.5    0.00       0    67.0
 121   23:40   62.7    32    3.3    64      6.9   925.4    0.00       0    66.8
 121   23:50   63.2    31    3.1    49      4.7   925.4    0.00       0    66.8
 122    0:00   62.8    32    1.1    12      3.1   925.4    0.00       0    66.7
 122    0:10   62.1    33    2.6   302      4.7   925.4    0.00       0    66.6
 122    0:20   60.7    35    4.1   325      5.4   925.4    0.00       0    66.5
 122    0:30   60.3    36    2.7   315      4.7   925.4    0.00       0    66.4
 122    0:40   60.7    34    5.3     2      6.6   925.4    0.00       0    66.3
 122    0:50   60.9    34    5.3    30      7.1   925.3    0.00       0    66.2
 122    1:00   60.3    34    5.0    67      6.5   925.1    0.00       0    66.0
 122    1:10   60.4    34    4.2    82      5.8   925.0    0.00       0    65.9
 122    1:20   61.3    32    3.7    80      5.2   924.9    0.00       0    65.7
 122    1:30   62.3    30    3.5    32      5.5   924.8    0.00       0    65.6
 122    1:40   63.1    29    2.4   349      3.7   924.7    0.00       0    65.5
 122    1:50   62.9    30    3.2   268      3.8   924.7    0.00       0    65.4
 122    2:00   61.8    32    3.1   171      4.3   924.7    0.00       0    65.3
 122    2:10   60.2    36    3.8   137      5.2   924.6    0.00       0    65.2
 122    2:20   61.0    34    3.1   120      4.0   924.7    0.00       0    65.0
 122    2:30   61.1    33    1.5   130      2.9   924.7    0.00       0    64.9
 122    2:40   61.2    32    1.3    51      2.8   924.7    0.00       0    64.8
 122    2:50   61.5    31    2.2    35      3.1   924.7    0.00       0    64.7
 122    3:00   61.4    32    1.9    29      2.8   924.8    0.00       0    64.6
 122    3:10   61.2    32    1.3     0      2.5   924.9    0.00       0    64.4
 122    3:20   61.0    32    0.9    48      1.9   925.0    0.00       0    64.3
 122    3:30   61.4    32    3.1   282      4.7   925.0    0.00       0    64.2
 122    3:40   60.7    34    2.9     7      5.3   925.0    0.00       0    64.1
 122    3:50   59.6    34    6.1    52      7.8   925.0    0.00       0    64.0
 122    4:00   59.2    36    6.1    61      7.0   924.9    0.00       0    63.8
 122    4:10   59.6    35    5.8    54      7.7   924.8    0.00       0    63.7
 122    4:20   59.8    35    5.7    55      7.2   924.8    0.00       0    63.5
 122    4:30   60.2    34    6.1    48      7.8   924.8    0.00       0    63.4
 122    4:40   60.7    33    5.6    54      8.8   924.7    0.00       0    63.2
 122    4:50   60.4    33    5.8    54      7.6   924.7    0.00       0    63.1
 122    5:00   60.8    32    5.0    56      5.9   924.7    0.00       0    63.0
 122    5:10   60.8    32    5.9    51      7.3   924.7    0.00       1    62.9
 122    5:20   60.8    31    5.4    53      7.3   924.8    0.00       5    62.8
 122    5:30   60.8    31    5.0    32      6.6   924.8    0.00       9    62.7
 122    5:40   61.5    29    4.5    22      6.5   924.9    0.00      15    62.7
 122    5:50   61.3    30    3.9   346      6.1   925.0    0.00      19    62.6
 122    6:00   61.4    29    3.9    32      5.3   925.1    0.00      23    62.5
 122    6:10   61.9    28    3.3    13      5.6   925.2    0.00      51    62.4
 122    6:20   62.5    28    3.5    31      4.4   925.2    0.00     194    62.3
 122    6:30   63.8    28    2.2   359      3.4   925.4    0.00     233    62.2
 122    6:40   64.7    28    1.8   342      2.9   925.5    0.00     273    62.1
 122    6:50   65.9    30    1.4    50      2.1   925.7    0.00     313    62.0
 122    7:00   66.9    29    1.4    44      2.6   925.7    0.00     344    62.0
 122    7:10   66.3    30    2.4    35      4.4   925.8    0.00     394    61.9
 122    7:20   65.6    29    2.3    14      3.7   925.9    0.00     433    61.9
 122    7:30   66.5    28    1.6    23      3.2   925.9    0.00     472    61.9
 122    7:40   67.2    26    0.9   303      2.7   926.0    0.00     510    61.8
 122    7:50   67.0    27    1.5   283      3.7   926.0    0.00     548    61.8
 122    8:00   66.3    28    2.2   291      4.0   926.1    0.00     584    61.8
 122    8:10   66.1    29    4.1   294      5.8   926.1    0.00     619    61.9
 122    8:20   65.8    29    4.6   274      6.3   926.2    0.00     652    62.0
 122    8:30   66.0    30    3.9   284      6.2   926.2    0.00     684    62.1
 122    8:40   66.3    30    3.9   279      6.3   926.2    0.00     717    62.2
 122    8:50   66.5    29    3.4   279      7.2   926.3    0.00     752    62.4
 122    9:00   66.3    29    3.4   258      6.4   926.3    0.00     786    62.5
 122    9:10   66.6    29    4.2   268      7.4   926.4    0.00     818    62.8
 122    9:20   66.7    30    4.1   276      6.8   926.4    0.00     846    63.0
 122    9:30   66.6    29    4.8   284      8.3   926.5    0.00     870    63.2
 122    9:40   66.7    29    5.1   265      9.1   926.5    0.00     893    63.5
 122    9:50   66.9    30    4.9   262      8.6   926.6    0.00     916    63.8
 122   10:00   67.0    31    5.5   268      8.5   926.6    0.00     936    64.0
 122   10:10   67.4    30    4.8   274      7.5   926.7    0.00     952    64.3
 122   10:20   66.7    36    5.4   220     10.3   926.7    0.00     969    64.6
 122   10:30   67.0    33    3.2   184      8.0   926.8    0.00     985    64.9
 122   10:40   67.9    35    2.7   223      5.4   926.8    0.00     998    65.2
 122   10:50   67.5    41    3.8   260      6.4   926.8    0.00    1009    65.5
 122   11:00   66.4    46    3.7   272      6.8   926.9    0.00    1017    65.7
 122   11:10   63.8    52    3.4   273      5.7   926.9    0.00    1025    66.0
 122   11:20   62.5    55    3.9   269      5.8   926.9    0.00    1032    66.3
 122   11:30   62.0    56    4.4   275      6.9   926.9    0.00    1036    66.6
 122   11:40   61.9    57    4.4   270      7.0   926.9    0.00    1039    66.8
 122   11:50   61.4    59    4.7   272      7.4   927.0    0.00    1042    67.1
 122   12:00   60.9    60    4.6   265      7.3   927.0    0.00    1041    67.4
 122   12:10   61.0    60    5.1   270      7.8   927.0    0.00    1040    67.6
 122   12:20   61.7    60    4.4   264      7.7   927.1    0.00    1038    67.9
 122   12:30   60.7    62    3.4   268      6.5   927.1    0.00    1035    68.1
 122   12:40   61.2    61    4.0   261      7.1   927.2    0.00    1029    68.3
 122   12:50   61.0    62    4.1   269      6.6   927.2    0.00    1019    68.5
 122   13:00   61.8    62    3.9   276      6.3   927.1    0.00    1008    68.8
 122   13:10   63.4    60    3.3   283      6.7   927.1    0.00     999    69.0
 122   13:20   63.5    59    3.6   270      6.3   927.1    0.00     987    69.4
 122   13:30   65.0    58    4.1   267      7.3   927.2    0.00     972    69.7
 122   13:40   64.4    59    4.3   264      6.8   927.2    0.00     956    70.1
 122   13:50   63.9    59    3.8   282      6.3   927.2    0.00     913    70.4
 122   14:00   64.6    58    4.5   272      6.5   927.2    0.00     919    70.8
 122   14:10   63.4    60    3.7   265      5.8   927.2    0.00     898    71.2
 122   14:20   64.7    59    3.9   273      6.4   927.2    0.00     875    71.5
 122   14:30   64.1    59    3.7   280      6.4   927.2    0.00     850    71.9
 122   14:40   65.4    57    4.1   275      6.8   927.2    0.00     823    72.2

Return to Highlands Peak graphs page.


Western Regional Climate Center,wrcc@dri.edu